sensor_id;sensor_type;location;lat;lon;timestamp;temperature;humidity
54684;DHT22;40582;53.100;6.686;2022-08-03T00:01:34;19.50;99.90
54684;DHT22;40582;53.100;6.686;2022-08-03T00:04:00;19.60;99.90
54684;DHT22;40582;53.100;6.686;2022-08-03T00:06:25;19.50;99.90
54684;DHT22;40582;53.100;6.686;2022-08-03T00:08:51;19.50;99.90
54684;DHT22;40582;53.100;6.686;2022-08-03T00:11:17;19.50;99.90
54684;DHT22;40582;53.100;6.686;2022-08-03T00:13:43;19.50;99.90
54684;DHT22;40582;53.100;6.686;2022-08-03T00:16:09;19.50;99.90
54684;DHT22;40582;53.100;6.686;2022-08-03T00:18:35;19.50;99.90
54684;DHT22;40582;53.100;6.686;2022-08-03T00:21:02;19.40;99.90
54684;DHT22;40582;53.100;6.686;2022-08-03T00:23:28;19.40;99.90
54684;DHT22;40582;53.100;6.686;2022-08-03T00:25:53;19.40;99.90
54684;DHT22;40582;53.100;6.686;2022-08-03T00:28:19;19.40;99.90
54684;DHT22;40582;53.100;6.686;2022-08-03T00:30:44;19.30;99.90
54684;DHT22;40582;53.100;6.686;2022-08-03T00:33:10;19.30;99.90
54684;DHT22;40582;53.100;6.686;2022-08-03T00:35:36;19.30;99.90
54684;DHT22;40582;53.100;6.686;2022-08-03T00:38:02;19.30;99.90
54684;DHT22;40582;53.100;6.686;2022-08-03T00:40:28;19.20;99.90
54684;DHT22;40582;53.100;6.686;2022-08-03T00:42:55;19.20;99.90
54684;DHT22;40582;53.100;6.686;2022-08-03T00:45:26;19.20;99.90
54684;DHT22;40582;53.100;6.686;2022-08-03T00:47:53;19.20;99.90
54684;DHT22;40582;53.100;6.686;2022-08-03T00:50:20;19.20;99.90
54684;DHT22;40582;53.100;6.686;2022-08-03T00:52:47;19.20;99.90
54684;DHT22;40582;53.100;6.686;2022-08-03T00:55:13;19.20;99.90
54684;DHT22;40582;53.100;6.686;2022-08-03T00:57:41;19.10;99.90
54684;DHT22;40582;53.100;6.686;2022-08-03T01:00:08;19.10;99.90
54684;DHT22;40582;53.100;6.686;2022-08-03T01:02:36;19.10;99.90
54684;DHT22;40582;53.100;6.686;2022-08-03T01:05:02;19.10;99.90
54684;DHT22;40582;53.100;6.686;2022-08-03T01:07:52;19.10;99.90
54684;DHT22;40582;53.100;6.686;2022-08-03T01:10:23;19.10;99.90
54684;DHT22;40582;53.100;6.686;2022-08-03T01:27:37;18.90;99.90
54684;DHT22;40582;53.100;6.686;2022-08-03T01:30:09;18.90;99.90
54684;DHT22;40582;53.100;6.686;2022-08-03T01:33:09;18.90;99.90
54684;DHT22;40582;53.100;6.686;2022-08-03T01:38:13;18.90;99.90
54684;DHT22;40582;53.100;6.686;2022-08-03T01:40:40;18.80;99.90
54684;DHT22;40582;53.100;6.686;2022-08-03T01:43:08;18.80;99.90
54684;DHT22;40582;53.100;6.686;2022-08-03T01:45:35;18.80;99.90
54684;DHT22;40582;53.100;6.686;2022-08-03T01:48:02;18.80;99.90
54684;DHT22;40582;53.100;6.686;2022-08-03T01:50:29;18.80;99.90
54684;DHT22;40582;53.100;6.686;2022-08-03T01:52:56;18.80;99.90
54684;DHT22;40582;53.100;6.686;2022-08-03T01:55:24;18.80;99.90
54684;DHT22;40582;53.100;6.686;2022-08-03T01:57:53;18.80;99.90
54684;DHT22;40582;53.100;6.686;2022-08-03T02:00:21;18.80;99.90
54684;DHT22;40582;53.100;6.686;2022-08-03T02:02:49;18.80;99.90
54684;DHT22;40582;53.100;6.686;2022-08-03T02:05:18;18.80;99.90
54684;DHT22;40582;53.100;6.686;2022-08-03T02:07:46;18.80;99.90
54684;DHT22;40582;53.100;6.686;2022-08-03T02:10:14;18.80;99.90
54684;DHT22;40582;53.100;6.686;2022-08-03T02:12:44;18.80;99.90
54684;DHT22;40582;53.100;6.686;2022-08-03T02:15:11;18.80;99.90
54684;DHT22;40582;53.100;6.686;2022-08-03T02:17:37;18.80;99.90
54684;DHT22;40582;53.100;6.686;2022-08-03T02:20:04;18.80;99.90
54684;DHT22;40582;53.100;6.686;2022-08-03T02:22:32;18.80;99.90
54684;DHT22;40582;53.100;6.686;2022-08-03T02:24:58;18.80;99.90
54684;DHT22;40582;53.100;6.686;2022-08-03T02:27:26;18.80;99.90
54684;DHT22;40582;53.100;6.686;2022-08-03T02:29:57;18.80;99.90
54684;DHT22;40582;53.100;6.686;2022-08-03T02:32:34;18.70;99.90
54684;DHT22;40582;53.100;6.686;2022-08-03T02:35:03;18.70;99.90
54684;DHT22;40582;53.100;6.686;2022-08-03T02:37:31;18.70;99.90
54684;DHT22;40582;53.100;6.686;2022-08-03T02:40:04;18.70;99.90
54684;DHT22;40582;53.100;6.686;2022-08-03T02:42:32;18.70;99.90
54684;DHT22;40582;53.100;6.686;2022-08-03T02:45:01;18.60;99.90
54684;DHT22;40582;53.100;6.686;2022-08-03T02:47:28;18.60;99.90
54684;DHT22;40582;53.100;6.686;2022-08-03T02:49:56;18.60;99.90
54684;DHT22;40582;53.100;6.686;2022-08-03T02:52:27;18.60;99.90
54684;DHT22;40582;53.100;6.686;2022-08-03T02:54:56;18.60;99.90
54684;DHT22;40582;53.100;6.686;2022-08-03T02:57:25;18.60;99.90
54684;DHT22;40582;53.100;6.686;2022-08-03T02:59:52;18.60;99.90
54684;DHT22;40582;53.100;6.686;2022-08-03T03:02:19;18.50;99.90
54684;DHT22;40582;53.100;6.686;2022-08-03T03:04:45;18.50;99.90
54684;DHT22;40582;53.100;6.686;2022-08-03T03:07:12;18.50;99.90
54684;DHT22;40582;53.100;6.686;2022-08-03T03:09:39;18.50;99.90
54684;DHT22;40582;53.100;6.686;2022-08-03T03:12:07;18.50;99.90
54684;DHT22;40582;53.100;6.686;2022-08-03T03:14:33;18.50;99.90
54684;DHT22;40582;53.100;6.686;2022-08-03T03:17:00;18.50;99.90
54684;DHT22;40582;53.100;6.686;2022-08-03T03:19:26;18.50;99.90
54684;DHT22;40582;53.100;6.686;2022-08-03T03:21:54;18.40;99.90
54684;DHT22;40582;53.100;6.686;2022-08-03T03:24:20;18.40;99.90
54684;DHT22;40582;53.100;6.686;2022-08-03T03:26:47;18.40;99.90
54684;DHT22;40582;53.100;6.686;2022-08-03T03:29:14;18.40;99.90
54684;DHT22;40582;53.100;6.686;2022-08-03T03:31:40;18.40;99.90
54684;DHT22;40582;53.100;6.686;2022-08-03T03:34:06;18.40;99.90
54684;DHT22;40582;53.100;6.686;2022-08-03T03:36:32;18.30;99.90
54684;DHT22;40582;53.100;6.686;2022-08-03T03:38:58;18.30;99.90
54684;DHT22;40582;53.100;6.686;2022-08-03T03:41:23;18.30;99.90
54684;DHT22;40582;53.100;6.686;2022-08-03T03:43:49;18.30;99.90
54684;DHT22;40582;53.100;6.686;2022-08-03T03:46:15;18.30;99.90
54684;DHT22;40582;53.100;6.686;2022-08-03T03:48:41;18.30;99.90
54684;DHT22;40582;53.100;6.686;2022-08-03T03:51:07;18.30;99.90
54684;DHT22;40582;53.100;6.686;2022-08-03T03:53:34;18.30;99.90
54684;DHT22;40582;53.100;6.686;2022-08-03T03:55:59;18.30;99.90
54684;DHT22;40582;53.100;6.686;2022-08-03T03:58:25;18.30;99.90
54684;DHT22;40582;53.100;6.686;2022-08-03T04:00:51;18.30;99.90
54684;DHT22;40582;53.100;6.686;2022-08-03T04:03:18;18.20;99.90
54684;DHT22;40582;53.100;6.686;2022-08-03T04:05:44;18.20;99.90
54684;DHT22;40582;53.100;6.686;2022-08-03T04:08:28;18.20;99.90
54684;DHT22;40582;53.100;6.686;2022-08-03T04:11:24;18.20;99.90
54684;DHT22;40582;53.100;6.686;2022-08-03T04:16:28;18.20;99.90
54684;DHT22;40582;53.100;6.686;2022-08-03T04:18:59;18.20;99.90
54684;DHT22;40582;53.100;6.686;2022-08-03T04:21:26;18.20;99.90
54684;DHT22;40582;53.100;6.686;2022-08-03T04:23:57;18.20;99.90
54684;DHT22;40582;53.100;6.686;2022-08-03T04:26:26;18.20;99.90
54684;DHT22;40582;53.100;6.686;2022-08-03T04:28:54;18.30;99.90
54684;DHT22;40582;53.100;6.686;2022-08-03T04:31:22;18.30;99.90
54684;DHT22;40582;53.100;6.686;2022-08-03T04:33:50;18.30;99.90
54684;DHT22;40582;53.100;6.686;2022-08-03T04:36:20;18.30;99.90
54684;DHT22;40582;53.100;6.686;2022-08-03T04:39:03;18.30;99.90
54684;DHT22;40582;53.100;6.686;2022-08-03T04:41:30;18.30;99.90
54684;DHT22;40582;53.100;6.686;2022-08-03T04:43:58;18.30;99.90
54684;DHT22;40582;53.100;6.686;2022-08-03T04:46:33;18.30;99.90
54684;DHT22;40582;53.100;6.686;2022-08-03T04:49:00;18.40;99.90
54684;DHT22;40582;53.100;6.686;2022-08-03T04:51:26;18.40;99.90
54684;DHT22;40582;53.100;6.686;2022-08-03T04:53:53;18.50;99.90
54684;DHT22;40582;53.100;6.686;2022-08-03T04:56:18;18.50;99.90
54684;DHT22;40582;53.100;6.686;2022-08-03T04:58:44;18.50;99.90
54684;DHT22;40582;53.100;6.686;2022-08-03T05:01:10;18.60;99.90
54684;DHT22;40582;53.100;6.686;2022-08-03T05:03:36;18.70;99.90
54684;DHT22;40582;53.100;6.686;2022-08-03T05:06:02;18.70;99.90
54684;DHT22;40582;53.100;6.686;2022-08-03T05:08:27;18.70;99.90
54684;DHT22;40582;53.100;6.686;2022-08-03T05:10:53;18.80;99.90
54684;DHT22;40582;53.100;6.686;2022-08-03T05:13:19;18.90;99.90
54684;DHT22;40582;53.100;6.686;2022-08-03T05:15:45;18.90;99.90
54684;DHT22;40582;53.100;6.686;2022-08-03T05:18:11;19.00;99.90
54684;DHT22;40582;53.100;6.686;2022-08-03T05:20:36;19.10;99.90
54684;DHT22;40582;53.100;6.686;2022-08-03T05:23:02;19.10;99.90
54684;DHT22;40582;53.100;6.686;2022-08-03T05:25:28;19.20;99.90
54684;DHT22;40582;53.100;6.686;2022-08-03T05:27:54;19.30;99.90
54684;DHT22;40582;53.100;6.686;2022-08-03T05:30:20;19.40;99.90
54684;DHT22;40582;53.100;6.686;2022-08-03T05:32:46;19.50;99.90
54684;DHT22;40582;53.100;6.686;2022-08-03T05:35:11;19.50;99.90
54684;DHT22;40582;53.100;6.686;2022-08-03T05:37:37;19.70;99.90
54684;DHT22;40582;53.100;6.686;2022-08-03T05:40:04;19.80;99.90
54684;DHT22;40582;53.100;6.686;2022-08-03T05:42:29;20.00;99.90
54684;DHT22;40582;53.100;6.686;2022-08-03T05:44:55;21.00;99.90
54684;DHT22;40582;53.100;6.686;2022-08-03T05:47:21;21.50;99.90
54684;DHT22;40582;53.100;6.686;2022-08-03T05:49:47;22.20;99.90
54684;DHT22;40582;53.100;6.686;2022-08-03T05:52:12;23.50;99.90
54684;DHT22;40582;53.100;6.686;2022-08-03T05:54:38;24.60;99.90
54684;DHT22;40582;53.100;6.686;2022-08-03T05:57:04;25.10;99.90
54684;DHT22;40582;53.100;6.686;2022-08-03T05:59:29;25.70;99.90
54684;DHT22;40582;53.100;6.686;2022-08-03T06:01:55;26.50;99.90
54684;DHT22;40582;53.100;6.686;2022-08-03T06:04:21;26.90;99.90
54684;DHT22;40582;53.100;6.686;2022-08-03T06:06:46;27.30;99.90
54684;DHT22;40582;53.100;6.686;2022-08-03T06:09:13;27.00;99.90
54684;DHT22;40582;53.100;6.686;2022-08-03T06:11:39;26.60;99.90
54684;DHT22;40582;53.100;6.686;2022-08-03T06:14:06;26.40;99.90
54684;DHT22;40582;53.100;6.686;2022-08-03T06:16:32;26.30;99.90
54684;DHT22;40582;53.100;6.686;2022-08-03T06:18:58;26.20;99.90
54684;DHT22;40582;53.100;6.686;2022-08-03T06:21:23;26.30;99.90
54684;DHT22;40582;53.100;6.686;2022-08-03T06:23:49;26.30;99.90
54684;DHT22;40582;53.100;6.686;2022-08-03T06:26:15;25.90;99.90
54684;DHT22;40582;53.100;6.686;2022-08-03T06:28:43;25.90;99.90
54684;DHT22;40582;53.100;6.686;2022-08-03T06:31:09;26.10;99.90
54684;DHT22;40582;53.100;6.686;2022-08-03T06:33:35;26.40;99.90
54684;DHT22;40582;53.100;6.686;2022-08-03T06:36:00;26.60;99.90
54684;DHT22;40582;53.100;6.686;2022-08-03T06:38:26;27.30;99.80
54684;DHT22;40582;53.100;6.686;2022-08-03T06:40:52;28.10;98.50
54684;DHT22;40582;53.100;6.686;2022-08-03T06:43:17;28.70;97.20
54684;DHT22;40582;53.100;6.686;2022-08-03T06:45:43;28.80;96.50
54684;DHT22;40582;53.100;6.686;2022-08-03T06:48:10;29.20;95.60
54684;DHT22;40582;53.100;6.686;2022-08-03T06:50:37;29.80;94.60
54684;DHT22;40582;53.100;6.686;2022-08-03T06:53:04;29.80;93.80
54684;DHT22;40582;53.100;6.686;2022-08-03T06:55:30;29.90;93.50
54684;DHT22;40582;53.100;6.686;2022-08-03T06:57:56;30.30;92.50
54684;DHT22;40582;53.100;6.686;2022-08-03T07:00:21;30.40;91.90
54684;DHT22;40582;53.100;6.686;2022-08-03T07:02:48;30.40;91.50
54684;DHT22;40582;53.100;6.686;2022-08-03T07:05:13;30.00;91.50
54684;DHT22;40582;53.100;6.686;2022-08-03T07:07:39;29.80;91.70
54684;DHT22;40582;53.100;6.686;2022-08-03T07:10:07;30.30;91.20
54684;DHT22;40582;53.100;6.686;2022-08-03T07:12:33;30.80;90.50
54684;DHT22;40582;53.100;6.686;2022-08-03T07:15:00;31.00;89.60
54684;DHT22;40582;53.100;6.686;2022-08-03T07:17:27;30.80;89.20
54684;DHT22;40582;53.100;6.686;2022-08-03T07:19:53;31.00;88.30
54684;DHT22;40582;53.100;6.686;2022-08-03T07:22:18;31.20;87.50
54684;DHT22;40582;53.100;6.686;2022-08-03T07:24:44;31.20;86.90
54684;DHT22;40582;53.100;6.686;2022-08-03T07:27:11;31.20;87.20
54684;DHT22;40582;53.100;6.686;2022-08-03T07:29:36;31.50;86.20
54684;DHT22;40582;53.100;6.686;2022-08-03T07:32:03;31.80;84.80
54684;DHT22;40582;53.100;6.686;2022-08-03T07:34:29;31.80;83.90
54684;DHT22;40582;53.100;6.686;2022-08-03T07:36:55;31.80;83.60
54684;DHT22;40582;53.100;6.686;2022-08-03T07:39:21;31.90;83.20
54684;DHT22;40582;53.100;6.686;2022-08-03T07:41:47;31.80;82.90
54684;DHT22;40582;53.100;6.686;2022-08-03T07:44:16;31.70;83.60
54684;DHT22;40582;53.100;6.686;2022-08-03T07:46:42;32.00;82.70
54684;DHT22;40582;53.100;6.686;2022-08-03T07:49:07;32.10;82.30
54684;DHT22;40582;53.100;6.686;2022-08-03T07:51:33;32.00;82.30
54684;DHT22;40582;53.100;6.686;2022-08-03T07:53:59;32.00;82.00
54684;DHT22;40582;53.100;6.686;2022-08-03T07:56:25;31.90;81.90
54684;DHT22;40582;53.100;6.686;2022-08-03T07:58:51;31.80;82.00
54684;DHT22;40582;53.100;6.686;2022-08-03T08:01:17;31.70;82.40
54684;DHT22;40582;53.100;6.686;2022-08-03T08:03:48;31.90;82.00
54684;DHT22;40582;53.100;6.686;2022-08-03T08:06:14;31.90;81.70
54684;DHT22;40582;53.100;6.686;2022-08-03T08:08:40;31.70;82.30
54684;DHT22;40582;53.100;6.686;2022-08-03T08:11:06;31.80;82.30
54684;DHT22;40582;53.100;6.686;2022-08-03T08:13:32;32.00;81.60
54684;DHT22;40582;53.100;6.686;2022-08-03T08:15:58;31.80;81.30
54684;DHT22;40582;53.100;6.686;2022-08-03T08:18:24;31.80;82.00
54684;DHT22;40582;53.100;6.686;2022-08-03T08:20:50;31.60;82.50
54684;DHT22;40582;53.100;6.686;2022-08-03T08:23:16;31.50;82.70
54684;DHT22;40582;53.100;6.686;2022-08-03T08:25:48;31.60;82.90
54684;DHT22;40582;53.100;6.686;2022-08-03T08:28:17;31.50;82.50
54684;DHT22;40582;53.100;6.686;2022-08-03T08:30:43;31.30;82.50
54684;DHT22;40582;53.100;6.686;2022-08-03T08:33:08;31.20;83.30
54684;DHT22;40582;53.100;6.686;2022-08-03T08:35:34;31.00;84.20
54684;DHT22;40582;53.100;6.686;2022-08-03T08:38:00;30.80;85.50
54684;DHT22;40582;53.100;6.686;2022-08-03T08:40:26;30.80;85.60
54684;DHT22;40582;53.100;6.686;2022-08-03T08:42:52;31.10;85.30
54684;DHT22;40582;53.100;6.686;2022-08-03T08:45:18;31.10;85.20
54684;DHT22;40582;53.100;6.686;2022-08-03T08:47:46;31.00;84.80
54684;DHT22;40582;53.100;6.686;2022-08-03T08:50:13;30.80;85.30
54684;DHT22;40582;53.100;6.686;2022-08-03T08:52:40;30.90;86.00
54684;DHT22;40582;53.100;6.686;2022-08-03T08:55:08;30.80;85.40
54684;DHT22;40582;53.100;6.686;2022-08-03T08:57:37;30.80;85.20
54684;DHT22;40582;53.100;6.686;2022-08-03T09:00:06;30.80;85.10
54684;DHT22;40582;53.100;6.686;2022-08-03T09:02:34;30.60;85.90
54684;DHT22;40582;53.100;6.686;2022-08-03T09:05:00;30.60;86.30
54684;DHT22;40582;53.100;6.686;2022-08-03T09:07:27;30.50;85.70
54684;DHT22;40582;53.100;6.686;2022-08-03T09:09:53;30.30;86.00
54684;DHT22;40582;53.100;6.686;2022-08-03T09:12:19;30.40;85.90
54684;DHT22;40582;53.100;6.686;2022-08-03T09:14:45;30.20;86.80
54684;DHT22;40582;53.100;6.686;2022-08-03T09:17:11;30.20;86.50
54684;DHT22;40582;53.100;6.686;2022-08-03T09:19:37;30.40;86.30
54684;DHT22;40582;53.100;6.686;2022-08-03T09:22:16;30.50;86.60
54684;DHT22;40582;53.100;6.686;2022-08-03T09:25:04;30.60;86.50
54684;DHT22;40582;53.100;6.686;2022-08-03T09:27:42;30.50;85.10
54684;DHT22;40582;53.100;6.686;2022-08-03T09:30:16;30.50;85.30
54684;DHT22;40582;53.100;6.686;2022-08-03T09:32:43;30.40;86.70
54684;DHT22;40582;53.100;6.686;2022-08-03T09:35:11;30.10;87.10
54684;DHT22;40582;53.100;6.686;2022-08-03T09:37:37;30.00;87.40
54684;DHT22;40582;53.100;6.686;2022-08-03T09:40:04;29.70;87.60
54684;DHT22;40582;53.100;6.686;2022-08-03T09:42:31;29.40;88.60
54684;DHT22;40582;53.100;6.686;2022-08-03T09:44:59;29.40;89.30
54684;DHT22;40582;53.100;6.686;2022-08-03T09:50:07;29.60;90.00
54684;DHT22;40582;53.100;6.686;2022-08-03T09:52:35;29.60;90.10
54684;DHT22;40582;53.100;6.686;2022-08-03T09:55:12;29.60;90.10
54684;DHT22;40582;53.100;6.686;2022-08-03T09:57:38;29.40;90.10
54684;DHT22;40582;53.100;6.686;2022-08-03T10:00:13;29.40;90.20
54684;DHT22;40582;53.100;6.686;2022-08-03T10:02:40;29.40;91.00
54684;DHT22;40582;53.100;6.686;2022-08-03T10:05:08;29.60;90.40
54684;DHT22;40582;53.100;6.686;2022-08-03T10:07:47;29.70;90.20
54684;DHT22;40582;53.100;6.686;2022-08-03T10:10:15;29.70;90.50
54684;DHT22;40582;53.100;6.686;2022-08-03T10:12:42;29.80;90.30
54684;DHT22;40582;53.100;6.686;2022-08-03T10:15:08;29.90;89.50
54684;DHT22;40582;53.100;6.686;2022-08-03T10:17:35;29.90;88.80
54684;DHT22;40582;53.100;6.686;2022-08-03T10:20:02;29.90;89.30
54684;DHT22;40582;53.100;6.686;2022-08-03T10:22:35;29.90;89.00
54684;DHT22;40582;53.100;6.686;2022-08-03T10:25:13;29.80;88.90
54684;DHT22;40582;53.100;6.686;2022-08-03T10:27:41;29.70;88.10
54684;DHT22;40582;53.100;6.686;2022-08-03T10:30:10;29.80;88.50
54684;DHT22;40582;53.100;6.686;2022-08-03T10:32:55;29.80;88.40
54684;DHT22;40582;53.100;6.686;2022-08-03T10:35:23;29.90;88.40
54684;DHT22;40582;53.100;6.686;2022-08-03T10:38:02;29.90;89.50
54684;DHT22;40582;53.100;6.686;2022-08-03T10:40:32;29.90;87.90
54684;DHT22;40582;53.100;6.686;2022-08-03T10:43:06;29.70;88.10
54684;DHT22;40582;53.100;6.686;2022-08-03T10:45:35;29.60;88.60
54684;DHT22;40582;53.100;6.686;2022-08-03T10:48:05;29.60;89.80
54684;DHT22;40582;53.100;6.686;2022-08-03T10:50:32;29.50;89.60
54684;DHT22;40582;53.100;6.686;2022-08-03T10:53:04;29.50;90.00
54684;DHT22;40582;53.100;6.686;2022-08-03T10:58:47;29.50;90.00
54684;DHT22;40582;53.100;6.686;2022-08-03T11:01:17;29.20;89.60
54684;DHT22;40582;53.100;6.686;2022-08-03T11:06:23;29.00;90.90
54684;DHT22;40582;53.100;6.686;2022-08-03T11:11:34;29.00;91.40
54684;DHT22;40582;53.100;6.686;2022-08-03T11:14:06;29.00;90.90
54684;DHT22;40582;53.100;6.686;2022-08-03T11:16:37;29.00;91.10
54684;DHT22;40582;53.100;6.686;2022-08-03T11:19:12;28.90;91.60
54684;DHT22;40582;53.100;6.686;2022-08-03T11:30:07;28.60;91.90
54684;DHT22;40582;53.100;6.686;2022-08-03T11:40:45;28.70;92.60
54684;DHT22;40582;53.100;6.686;2022-08-03T11:48:21;29.30;92.40
54684;DHT22;40582;53.100;6.686;2022-08-03T11:50:47;29.50;91.10
54684;DHT22;40582;53.100;6.686;2022-08-03T11:53:15;29.70;91.30
54684;DHT22;40582;53.100;6.686;2022-08-03T11:55:43;29.90;91.30
54684;DHT22;40582;53.100;6.686;2022-08-03T11:58:17;30.10;90.80
54684;DHT22;40582;53.100;6.686;2022-08-03T12:00:43;30.20;90.40
54684;DHT22;40582;53.100;6.686;2022-08-03T12:03:12;30.20;89.70
54684;DHT22;40582;53.100;6.686;2022-08-03T12:05:42;30.30;88.90
54684;DHT22;40582;53.100;6.686;2022-08-03T12:08:10;30.40;89.00
54684;DHT22;40582;53.100;6.686;2022-08-03T12:10:37;30.50;88.40
54684;DHT22;40582;53.100;6.686;2022-08-03T12:13:05;30.60;87.60
54684;DHT22;40582;53.100;6.686;2022-08-03T12:15:34;30.50;86.50
54684;DHT22;40582;53.100;6.686;2022-08-03T12:18:02;30.50;85.70
54684;DHT22;40582;53.100;6.686;2022-08-03T12:20:31;30.50;85.00
54684;DHT22;40582;53.100;6.686;2022-08-03T12:23:04;30.50;85.00
54684;DHT22;40582;53.100;6.686;2022-08-03T12:25:31;30.60;84.00
54684;DHT22;40582;53.100;6.686;2022-08-03T12:30:42;30.60;84.60
54684;DHT22;40582;53.100;6.686;2022-08-03T12:33:15;30.60;84.20
54684;DHT22;40582;53.100;6.686;2022-08-03T12:35:42;30.70;82.20
54684;DHT22;40582;53.100;6.686;2022-08-03T12:38:09;30.70;83.60
54684;DHT22;40582;53.100;6.686;2022-08-03T12:40:36;30.80;82.90
54684;DHT22;40582;53.100;6.686;2022-08-03T12:43:12;30.80;82.20
54684;DHT22;40582;53.100;6.686;2022-08-03T12:45:38;30.80;81.60
54684;DHT22;40582;53.100;6.686;2022-08-03T12:48:08;30.80;82.10
54684;DHT22;40582;53.100;6.686;2022-08-03T12:50:36;30.90;81.30
54684;DHT22;40582;53.100;6.686;2022-08-03T12:53:04;30.80;81.10
54684;DHT22;40582;53.100;6.686;2022-08-03T12:55:31;30.90;81.10
54684;DHT22;40582;53.100;6.686;2022-08-03T12:58:01;30.90;80.50
54684;DHT22;40582;53.100;6.686;2022-08-03T13:00:27;31.00;80.90
54684;DHT22;40582;53.100;6.686;2022-08-03T13:03:06;31.00;79.90
54684;DHT22;40582;53.100;6.686;2022-08-03T13:05:45;31.00;78.00
54684;DHT22;40582;53.100;6.686;2022-08-03T13:08:24;30.90;77.90
54684;DHT22;40582;53.100;6.686;2022-08-03T13:10:50;30.90;76.80
54684;DHT22;40582;53.100;6.686;2022-08-03T13:13:16;31.00;77.50
54684;DHT22;40582;53.100;6.686;2022-08-03T13:15:42;31.00;76.50
54684;DHT22;40582;53.100;6.686;2022-08-03T13:18:07;31.00;75.40
54684;DHT22;40582;53.100;6.686;2022-08-03T13:20:34;31.00;75.50
54684;DHT22;40582;53.100;6.686;2022-08-03T13:23:00;31.00;74.10
54684;DHT22;40582;53.100;6.686;2022-08-03T13:25:27;31.00;73.30
54684;DHT22;40582;53.100;6.686;2022-08-03T13:27:52;30.80;72.70
54684;DHT22;40582;53.100;6.686;2022-08-03T13:30:18;30.70;73.40
54684;DHT22;40582;53.100;6.686;2022-08-03T13:32:44;30.70;73.90
54684;DHT22;40582;53.100;6.686;2022-08-03T13:35:10;30.70;74.30
54684;DHT22;40582;53.100;6.686;2022-08-03T13:37:36;30.70;75.50
54684;DHT22;40582;53.100;6.686;2022-08-03T13:40:04;30.60;75.00
54684;DHT22;40582;53.100;6.686;2022-08-03T13:42:32;30.70;75.20
54684;DHT22;40582;53.100;6.686;2022-08-03T13:44:58;30.70;74.80
54684;DHT22;40582;53.100;6.686;2022-08-03T13:47:25;30.70;75.30
54684;DHT22;40582;53.100;6.686;2022-08-03T13:49:51;30.70;75.10
54684;DHT22;40582;53.100;6.686;2022-08-03T13:52:18;30.70;75.50
54684;DHT22;40582;53.100;6.686;2022-08-03T13:54:44;30.70;75.40
54684;DHT22;40582;53.100;6.686;2022-08-03T13:57:10;30.60;76.00
54684;DHT22;40582;53.100;6.686;2022-08-03T13:59:36;30.60;77.50
54684;DHT22;40582;53.100;6.686;2022-08-03T14:02:02;30.70;77.70
54684;DHT22;40582;53.100;6.686;2022-08-03T14:04:28;30.60;77.60
54684;DHT22;40582;53.100;6.686;2022-08-03T14:06:54;30.50;78.30
54684;DHT22;40582;53.100;6.686;2022-08-03T14:09:20;30.40;78.80
54684;DHT22;40582;53.100;6.686;2022-08-03T14:11:45;30.50;78.20
54684;DHT22;40582;53.100;6.686;2022-08-03T14:14:11;30.50;77.90
54684;DHT22;40582;53.100;6.686;2022-08-03T14:16:37;30.60;77.90
54684;DHT22;40582;53.100;6.686;2022-08-03T14:19:03;30.70;77.70
54684;DHT22;40582;53.100;6.686;2022-08-03T14:21:29;30.80;77.60
54684;DHT22;40582;53.100;6.686;2022-08-03T14:23:55;30.80;75.90
54684;DHT22;40582;53.100;6.686;2022-08-03T14:26:21;30.70;75.10
54684;DHT22;40582;53.100;6.686;2022-08-03T14:28:47;30.70;75.70
54684;DHT22;40582;53.100;6.686;2022-08-03T14:31:13;30.70;75.50
54684;DHT22;40582;53.100;6.686;2022-08-03T14:33:39;30.60;74.10
54684;DHT22;40582;53.100;6.686;2022-08-03T14:36:05;30.50;73.00
54684;DHT22;40582;53.100;6.686;2022-08-03T14:38:31;30.40;73.40
54684;DHT22;40582;53.100;6.686;2022-08-03T14:40:56;30.30;73.20
54684;DHT22;40582;53.100;6.686;2022-08-03T14:43:22;30.30;74.20
54684;DHT22;40582;53.100;6.686;2022-08-03T14:45:49;30.20;73.70
54684;DHT22;40582;53.100;6.686;2022-08-03T14:48:21;30.20;74.00
54684;DHT22;40582;53.100;6.686;2022-08-03T14:50:48;30.20;73.70
54684;DHT22;40582;53.100;6.686;2022-08-03T14:53:13;30.20;73.80
54684;DHT22;40582;53.100;6.686;2022-08-03T14:55:39;30.10;73.00
54684;DHT22;40582;53.100;6.686;2022-08-03T14:58:05;30.00;73.20
54684;DHT22;40582;53.100;6.686;2022-08-03T15:00:35;30.00;73.20
54684;DHT22;40582;53.100;6.686;2022-08-03T15:03:03;30.00;73.60
54684;DHT22;40582;53.100;6.686;2022-08-03T15:05:29;29.90;73.70
54684;DHT22;40582;53.100;6.686;2022-08-03T15:07:55;29.90;74.00
54684;DHT22;40582;53.100;6.686;2022-08-03T15:10:21;29.70;74.30
54684;DHT22;40582;53.100;6.686;2022-08-03T15:12:46;29.70;74.80
54684;DHT22;40582;53.100;6.686;2022-08-03T15:15:12;29.70;75.70
54684;DHT22;40582;53.100;6.686;2022-08-03T15:17:38;29.70;75.50
54684;DHT22;40582;53.100;6.686;2022-08-03T15:20:04;29.60;75.50
54684;DHT22;40582;53.100;6.686;2022-08-03T15:22:30;29.60;74.80
54684;DHT22;40582;53.100;6.686;2022-08-03T15:24:57;29.60;75.00
54684;DHT22;40582;53.100;6.686;2022-08-03T15:27:22;29.60;75.80
54684;DHT22;40582;53.100;6.686;2022-08-03T15:29:48;29.60;75.80
54684;DHT22;40582;53.100;6.686;2022-08-03T15:32:14;29.60;76.40
54684;DHT22;40582;53.100;6.686;2022-08-03T15:34:40;29.60;76.60
54684;DHT22;40582;53.100;6.686;2022-08-03T15:37:06;29.50;75.90
54684;DHT22;40582;53.100;6.686;2022-08-03T15:39:32;29.50;75.50
54684;DHT22;40582;53.100;6.686;2022-08-03T15:41:57;29.40;75.50
54684;DHT22;40582;53.100;6.686;2022-08-03T15:44:23;29.40;76.10
54684;DHT22;40582;53.100;6.686;2022-08-03T15:46:51;29.30;76.40
54684;DHT22;40582;53.100;6.686;2022-08-03T15:49:17;29.30;76.40
54684;DHT22;40582;53.100;6.686;2022-08-03T15:51:43;29.30;76.10
54684;DHT22;40582;53.100;6.686;2022-08-03T15:54:08;29.20;76.30
54684;DHT22;40582;53.100;6.686;2022-08-03T15:56:34;29.20;76.10
54684;DHT22;40582;53.100;6.686;2022-08-03T15:59:00;29.20;76.60
54684;DHT22;40582;53.100;6.686;2022-08-03T16:01:26;29.10;76.60
54684;DHT22;40582;53.100;6.686;2022-08-03T16:03:52;29.00;76.20
54684;DHT22;40582;53.100;6.686;2022-08-03T16:06:17;29.00;76.30
54684;DHT22;40582;53.100;6.686;2022-08-03T16:08:43;28.90;76.40
54684;DHT22;40582;53.100;6.686;2022-08-03T16:11:10;28.80;76.30
54684;DHT22;40582;53.100;6.686;2022-08-03T16:13:35;28.70;76.50
54684;DHT22;40582;53.100;6.686;2022-08-03T16:16:01;28.60;76.50
54684;DHT22;40582;53.100;6.686;2022-08-03T16:18:29;28.50;76.10
54684;DHT22;40582;53.100;6.686;2022-08-03T16:20:58;28.50;76.60
54684;DHT22;40582;53.100;6.686;2022-08-03T16:23:25;28.40;76.50
54684;DHT22;40582;53.100;6.686;2022-08-03T16:25:51;28.30;76.40
54684;DHT22;40582;53.100;6.686;2022-08-03T16:28:17;28.30;76.60